Time;durP1;ratioP1;P1;durP2;ratioP2;P2;SDS_P1;SDS_P2;PMS_P1;PMS_P2;Temp;Humidity;BMP_temperature;BMP_pressure;BME280_temperature;BME280_humidity;BME280_pressure;Samples;Min_cycle;Max_cycle;Signal;HPM_P1;HPM_P2
2024/01/24 00:01:34;;;;;;;55.90;36.38;;;;;;;-0.18;100.00;104463.13;5059892;28;20023;-73
2024/01/24 00:03:59;;;;;;;54.78;34.30;;;;;;;-0.58;100.00;104446.22;5062148;28;20059;-74
2024/01/24 00:06:26;;;;;;;60.13;36.83;;;;;;;-0.83;100.00;104393.94;5057302;28;20071;-72
2024/01/24 00:08:51;;;;;;;76.00;40.78;;;;;;;-0.15;100.00;104556.78;5058870;28;20062;-73
2024/01/24 00:11:17;;;;;;;68.15;39.70;;;;;;;-0.11;100.00;104597.94;5054543;28;20028;-75
2024/01/24 00:13:43;;;;;;;60.25;37.55;;;;;;;-0.77;100.00;104500.25;5062170;28;20032;-74
2024/01/24 00:16:08;;;;;;;80.85;45.30;;;;;;;-0.25;100.00;104654.22;5055850;28;20045;-73
2024/01/24 00:18:34;;;;;;;70.30;39.38;;;;;;;-0.40;100.00;104652.84;5060223;28;20115;-74
2024/01/24 00:20:59;;;;;;;61.65;37.90;;;;;;;-0.85;100.00;104608.56;5058924;28;20029;-74
2024/01/24 00:23:25;;;;;;;56.05;34.67;;;;;;;-0.40;100.00;104719.44;5050948;28;20089;-72
2024/01/24 00:25:51;;;;;;;50.55;32.63;;;;;;;-1.53;100.00;104583.75;5054391;28;20036;-72
2024/01/24 00:28:16;;;;;;;51.90;33.80;;;;;;;-0.68;100.00;104696.00;5053775;28;20120;-73
2024/01/24 00:30:43;;;;;;;54.60;32.53;;;;;;;-1.68;100.00;104513.31;5051007;28;20116;-74
2024/01/24 00:33:10;;;;;;;54.55;32.92;;;;;;;-1.20;100.00;104611.91;5060987;28;20039;-72
2024/01/24 00:35:35;;;;;;;47.90;31.55;;;;;;;-0.95;100.00;104699.25;5059284;28;20503;-74
2024/01/24 00:38:01;;;;;;;52.22;32.33;;;;;;;-0.92;100.00;104722.03;5057635;28;20029;-73
2024/01/24 00:40:26;;;;;;;53.97;32.20;;;;;;;-1.22;100.00;104665.78;5065579;28;20032;-73
2024/01/24 00:42:52;;;;;;;51.50;32.38;;;;;;;-1.33;100.00;104679.78;5059339;28;20059;-72
2024/01/24 00:45:17;;;;;;;49.42;31.55;;;;;;;-0.30;100.00;104867.06;5061145;28;20032;-73
2024/01/24 00:47:43;;;;;;;48.38;32.03;;;;;;;-0.26;100.00;104922.50;5058609;28;20040;-73
2024/01/24 00:50:09;;;;;;;47.97;31.38;;;;;;;-0.48;100.00;104862.81;5062750;28;20025;-72
2024/01/24 00:52:35;;;;;;;47.83;31.15;;;;;;;-0.82;100.00;104797.84;5059620;28;20072;-72
2024/01/24 00:55:01;;;;;;;47.65;30.02;;;;;;;-0.47;100.00;104897.94;5060496;28;20517;-74
2024/01/24 00:57:26;;;;;;;47.67;30.73;;;;;;;-0.82;100.00;104727.91;5061264;28;20033;-73
2024/01/24 00:59:52;;;;;;;52.58;33.05;;;;;;;-0.81;100.00;104840.44;5060759;28;20432;-73
2024/01/24 01:02:17;;;;;;;49.45;32.65;;;;;;;-0.69;100.00;104816.66;5065366;28;20032;-75
2024/01/24 01:04:46;;;;;;;47.88;31.23;;;;;;;-0.83;100.00;104871.91;5060218;28;20120;-72
2024/01/24 01:07:11;;;;;;;46.55;31.27;;;;;;;-0.76;100.00;104898.38;5059283;28;20104;-73
2024/01/24 01:09:37;;;;;;;48.03;30.52;;;;;;;-1.41;100.00;104789.56;5059890;28;20532;-72
2024/01/24 01:12:03;;;;;;;47.95;30.88;;;;;;;-1.14;100.00;104893.00;5063155;28;20028;-76
2024/01/24 01:14:28;;;;;;;51.05;32.42;;;;;;;-0.49;100.00;105091.00;5059256;28;20159;-75
2024/01/24 01:16:54;;;;;;;51.50;31.80;;;;;;;-1.40;100.00;104836.22;5063749;28;20108;-74
2024/01/24 01:19:19;;;;;;;47.33;31.77;;;;;;;-1.68;100.00;104811.81;5061276;28;20041;-73
2024/01/24 01:21:45;;;;;;;52.78;31.63;;;;;;;-0.74;100.00;105062.69;5060484;28;20031;-73
2024/01/24 01:24:10;;;;;;;44.83;30.85;;;;;;;-0.89;100.00;104966.22;5055621;28;20039;-74
2024/01/24 01:26:36;;;;;;;53.25;33.90;;;;;;;-1.23;100.00;104943.66;5060559;28;20028;-73
2024/01/24 01:29:02;;;;;;;53.78;34.60;;;;;;;-0.73;100.00;105086.94;5062000;28;20032;-73
2024/01/24 01:31:27;;;;;;;55.70;35.20;;;;;;;-0.70;100.00;105132.25;5062753;28;20134;-72
2024/01/24 01:33:53;;;;;;;54.50;33.15;;;;;;;-0.67;100.00;105130.03;5072109;28;20070;-76
2024/01/24 01:36:19;;;;;;;51.58;32.47;;;;;;;-0.83;100.00;105076.75;5071249;28;20037;-74
2024/01/24 01:38:44;;;;;;;48.13;31.63;;;;;;;-1.43;100.00;105018.13;5062506;28;20032;-73
2024/01/24 01:41:10;;;;;;;52.72;30.27;;;;;;;-1.05;100.00;105040.38;5062562;28;20036;-74
2024/01/24 01:43:35;;;;;;;49.63;31.55;;;;;;;-0.94;100.00;105072.31;5056789;28;20036;-72
2024/01/24 01:46:06;;;;;;;52.75;31.67;;;;;;;-1.44;100.00;104993.88;5065338;28;20117;-73
2024/01/24 01:48:33;;;;;;;54.40;33.83;;;;;;;-1.79;100.00;104936.31;5062233;28;20090;-73
2024/01/24 01:50:58;;;;;;;48.20;31.83;;;;;;;-1.46;100.00;104993.72;5054864;28;20040;-73
2024/01/24 01:53:24;;;;;;;46.08;29.40;;;;;;;-1.34;100.00;105017.44;5059973;28;20122;-75
2024/01/24 01:55:50;;;;;;;49.58;30.48;;;;;;;-1.10;100.00;105203.81;5059097;28;20554;-74
2024/01/24 01:58:17;;;;;;;48.35;30.85;;;;;;;-0.89;100.00;105196.03;5065106;28;20035;-73
2024/01/24 02:00:46;;;;;;;48.47;30.08;;;;;;;-1.68;100.00;105026.34;5059433;28;20028;-73
2024/01/24 02:03:12;;;;;;;46.90;29.30;;;;;;;-0.88;100.00;105211.22;5058654;28;20423;-73
2024/01/24 02:05:39;;;;;;;47.78;30.40;;;;;;;-1.18;100.00;105187.16;5059207;28;20035;-74
2024/01/24 02:08:05;;;;;;;50.38;30.58;;;;;;;-1.03;100.00;105186.28;5057018;28;20036;-74
2024/01/24 02:10:30;;;;;;;46.17;29.45;;;;;;;-1.51;100.00;105176.19;5060469;28;20043;-73
2024/01/24 02:12:56;;;;;;;50.15;30.90;;;;;;;-1.14;100.00;105284.16;5058273;28;20028;-73
2024/01/24 02:15:21;;;;;;;52.22;30.80;;;;;;;-1.72;100.00;105181.41;5056804;28;20035;-74
2024/01/24 02:17:47;;;;;;;49.38;30.27;;;;;;;-2.21;100.00;105116.34;5059410;28;20039;-73
2024/01/24 02:20:13;;;;;;;51.38;31.58;;;;;;;-1.26;100.00;105337.78;5060353;28;20029;-73
2024/01/24 02:22:39;;;;;;;54.50;30.75;;;;;;;-1.34;100.00;105361.94;5057407;28;20067;-71
2024/01/24 02:25:05;;;;;;;46.55;29.63;;;;;;;-0.84;100.00;105579.69;5059121;28;20040;-73
2024/01/24 02:27:30;;;;;;;52.40;32.88;;;;;;;-1.20;100.00;105424.22;5058890;28;20037;-72
2024/01/24 02:29:59;;;;;;;47.10;30.60;;;;;;;-1.16;100.00;105463.78;5054116;28;20408;-71
2024/01/24 02:32:24;;;;;;;44.80;29.65;;;;;;;-1.51;100.00;105410.75;5052609;28;20025;-74
2024/01/24 02:34:50;;;;;;;44.60;28.15;;;;;;;-1.39;100.00;105422.97;5055413;28;20071;-72
2024/01/24 02:37:15;;;;;;;45.97;30.13;;;;;;;-2.07;100.00;105292.34;5057293;28;20455;-74
2024/01/24 02:39:41;;;;;;;46.13;30.10;;;;;;;-1.47;100.00;105400.38;5054590;28;20033;-74
2024/01/24 02:42:08;;;;;;;48.05;29.73;;;;;;;-1.93;100.00;105278.16;5061687;28;20032;-73
2024/01/24 02:44:34;;;;;;;46.85;29.75;;;;;;;-1.57;100.00;105418.47;5058543;28;20032;-73
2024/01/24 02:46:59;;;;;;;46.28;29.38;;;;;;;-1.89;100.00;105414.94;5059471;28;20039;-74
2024/01/24 02:49:25;;;;;;;49.70;29.88;;;;;;;-1.39;100.00;105492.88;5055178;28;20480;-73
2024/01/24 02:51:50;;;;;;;45.35;29.40;;;;;;;-1.47;100.00;105445.31;5056188;28;20036;-74
2024/01/24 02:54:16;;;;;;;47.58;28.05;;;;;;;-1.58;100.00;105458.22;5063896;28;20132;-74
2024/01/24 02:56:41;;;;;;;43.28;28.83;;;;;;;-1.17;100.00;105486.97;5059146;28;20408;-73
2024/01/24 02:59:08;;;;;;;44.70;28.70;;;;;;;-1.22;100.00;105573.00;5056842;28;20044;-72
2024/01/24 03:01:33;;;;;;;42.30;27.40;;;;;;;-1.26;100.00;105480.09;5058053;28;20024;-74
2024/01/24 03:03:58;;;;;;;45.28;28.45;;;;;;;-1.51;100.00;105434.13;5057099;28;20410;-74
2024/01/24 03:06:24;;;;;;;46.42;29.05;;;;;;;-1.28;100.00;105516.47;5064014;28;20033;-74
2024/01/24 03:08:51;;;;;;;46.35;29.83;;;;;;;-1.51;100.00;105489.03;5057834;28;20029;-72
2024/01/24 03:11:17;;;;;;;42.95;27.98;;;;;;;-1.49;100.00;105459.22;5059800;28;20473;-73
2024/01/24 03:13:44;;;;;;;47.53;29.02;;;;;;;-1.80;100.00;105360.16;5060624;28;20028;-73
2024/01/24 03:16:09;;;;;;;53.78;33.85;;;;;;;-2.03;100.00;105352.69;5056860;28;20036;-73
2024/01/24 03:18:38;;;;;;;48.65;29.85;;;;;;;-1.21;100.00;105598.84;5053378;28;20025;-71
2024/01/24 03:21:06;;;;;;;46.90;29.33;;;;;;;-1.68;100.00;105506.22;5052018;28;20128;-74
2024/01/24 03:23:31;;;;;;;47.05;28.75;;;;;;;-1.81;100.00;105498.09;5056863;28;20230;-74
2024/01/24 03:25:58;;;;;;;46.20;30.05;;;;;;;-1.72;100.00;105551.50;5061504;28;20563;-74
2024/01/24 03:28:23;;;;;;;50.08;31.63;;;;;;;-2.09;100.00;105433.41;5062385;28;20033;-72
2024/01/24 03:30:49;;;;;;;45.60;29.52;;;;;;;-1.40;100.00;105603.41;5050964;28;20029;-72
2024/01/24 03:33:14;;;;;;;46.80;29.58;;;;;;;-1.70;100.00;105577.50;5058405;28;20032;-71
2024/01/24 03:35:40;;;;;;;49.22;30.67;;;;;;;-1.68;100.00;105590.19;5055824;28;20044;-73
2024/01/24 03:38:05;;;;;;;48.33;29.55;;;;;;;-1.22;100.00;105650.41;5057991;28;20028;-71
2024/01/24 03:40:32;;;;;;;49.90;31.00;;;;;;;-1.97;100.00;105459.69;5050632;28;20528;-71
2024/01/24 03:42:58;;;;;;;48.38;30.05;;;;;;;-2.00;100.00;105500.13;5051460;28;20021;-73
2024/01/24 03:45:23;;;;;;;48.38;29.65;;;;;;;-1.28;100.00;105601.38;5047681;28;20037;-75
2024/01/24 03:47:49;;;;;;;53.08;31.85;;;;;;;-1.83;100.00;105560.31;5050973;28;20048;-73
2024/01/24 03:50:15;;;;;;;54.40;32.15;;;;;;;-1.21;100.00;105576.38;5051633;28;20034;-74
2024/01/24 03:52:41;;;;;;;50.40;33.35;;;;;;;-1.51;100.00;105622.91;5053973;28;20029;-74
2024/01/24 03:55:06;;;;;;;52.97;33.10;;;;;;;-1.89;100.00;105593.63;5053758;28;20048;-75
2024/01/24 03:57:32;;;;;;;54.15;34.17;;;;;;;-1.86;100.00;105106.00;5052291;28;20032;-75
2024/01/24 03:59:57;;;;;;;50.42;33.58;;;;;;;-1.37;100.00;105214.34;5051057;28;20029;-73
2024/01/24 04:02:23;;;;;;;53.17;33.17;;;;;;;-1.76;100.00;105167.69;5071642;28;20024;-74
2024/01/24 04:04:48;;;;;;;49.20;32.92;;;;;;;-1.49;100.00;105195.59;5062646;28;20029;-73
2024/01/24 04:07:13;;;;;;;52.85;33.50;;;;;;;-1.40;100.00;105196.53;5059365;28;20048;-73
2024/01/24 04:09:39;;;;;;;62.72;37.78;;;;;;;-1.71;100.00;105160.72;5058866;28;20032;-73
2024/01/24 04:12:05;;;;;;;57.33;35.90;;;;;;;-1.89;100.00;105140.59;5054936;28;20099;-72
2024/01/24 04:14:30;;;;;;;46.92;30.27;;;;;;;-1.39;100.00;105202.41;5056830;28;20052;-72
2024/01/24 04:16:56;;;;;;;50.30;32.53;;;;;;;2.57;100.00;106414.19;5061384;28;20040;-71
2024/01/24 04:19:21;;;;;;;54.10;33.33;;;;;;;1.00;100.00;105916.75;5058595;28;20036;-72
2024/01/24 04:21:47;;;;;;;50.60;33.50;;;;;;;0.09;100.00;105811.66;5058133;28;20086;-73
2024/01/24 04:24:12;;;;;;;58.33;35.53;;;;;;;-1.08;100.00;105442.13;5059578;28;20091;-71
2024/01/24 04:26:38;;;;;;;51.97;34.60;;;;;;;-1.93;100.00;105267.28;5058714;28;20525;-71
2024/01/24 04:29:03;;;;;;;54.25;34.38;;;;;;;-1.14;100.00;105497.31;5061148;28;20068;-72
2024/01/24 04:31:29;;;;;;;52.72;33.42;;;;;;;-1.04;100.00;105461.72;5062577;28;20541;-70
2024/01/24 04:33:55;;;;;;;53.47;34.35;;;;;;;-1.13;100.00;105441.63;5063229;28;20029;-71
2024/01/24 04:36:20;;;;;;;55.20;34.78;;;;;;;-1.56;100.00;105336.97;5056069;28;20040;-72
2024/01/24 04:38:46;;;;;;;57.83;35.80;;;;;;;-2.33;100.00;105183.94;5059192;28;20101;-72
2024/01/24 04:41:11;;;;;;;52.63;32.85;;;;;;;-2.63;100.00;105160.69;5061490;28;20412;-70
2024/01/24 04:43:37;;;;;;;50.42;32.53;;;;;;;-1.49;100.00;105414.31;5061275;28;20505;-70
2024/01/24 04:46:02;;;;;;;52.85;32.47;;;;;;;-2.39;100.00;105181.66;5061457;28;20032;-74
2024/01/24 04:48:28;;;;;;;48.97;31.60;;;;;;;-1.82;100.00;105321.69;5058695;28;20032;-70
2024/01/24 04:50:53;;;;;;;51.72;33.30;;;;;;;-1.88;100.00;105323.53;5060378;28;20036;-71
2024/01/24 04:53:19;;;;;;;57.13;34.78;;;;;;;-1.95;100.00;105366.88;5057604;28;20036;-71
2024/01/24 04:55:45;;;;;;;77.45;39.10;;;;;;;-2.34;100.00;105261.91;5057055;28;20029;-70
2024/01/24 04:58:11;;;;;;;69.32;36.85;;;;;;;-1.76;100.00;105397.19;5063641;28;20516;-72
2024/01/24 05:00:36;;;;;;;57.55;33.60;;;;;;;-2.05;100.00;105339.16;5061121;28;20029;-72
2024/01/24 05:03:02;;;;;;;52.58;32.15;;;;;;;-1.97;100.00;105348.38;5057111;28;20499;-72
2024/01/24 05:05:28;;;;;;;56.13;32.80;;;;;;;-2.69;100.00;105206.59;5066597;28;20032;-71
2024/01/24 05:07:54;;;;;;;58.97;33.70;;;;;;;-2.97;100.00;105143.66;5058799;28;20071;-71
2024/01/24 05:10:20;;;;;;;53.90;31.45;;;;;;;-1.71;100.00;105508.38;5056901;28;20052;-71
2024/01/24 05:12:45;;;;;;;52.47;32.95;;;;;;;-2.44;100.00;105291.53;5057860;28;20036;-71
2024/01/24 05:15:11;;;;;;;57.28;36.63;;;;;;;-2.09;100.00;105490.75;5062501;28;20020;-71
2024/01/24 05:17:38;;;;;;;55.13;36.58;;;;;;;-1.58;100.00;105526.47;5063560;28;20407;-72
2024/01/24 05:20:06;;;;;;;58.78;36.33;;;;;;;-2.17;100.00;105354.38;5064567;28;20032;-71
2024/01/24 05:22:32;;;;;;;61.22;38.25;;;;;;;-2.27;100.00;105394.84;5060927;28;20035;-71
2024/01/24 05:24:58;;;;;;;64.35;38.88;;;;;;;-1.98;100.00;105450.47;5056473;28;20116;-72
2024/01/24 05:27:23;;;;;;;65.05;40.88;;;;;;;-2.21;100.00;105374.69;5060551;28;20122;-72
2024/01/24 05:29:49;;;;;;;72.60;45.92;;;;;;;-1.95;100.00;105434.22;5053744;28;20501;-71
2024/01/24 05:32:14;;;;;;;90.80;58.33;;;;;;;-1.65;100.00;105526.53;5057636;28;20032;-71
2024/01/24 05:34:40;;;;;;;75.05;47.33;;;;;;;-1.54;100.00;105522.72;5063871;28;20106;-70
2024/01/24 05:37:05;;;;;;;115.65;64.85;;;;;;;-2.05;100.00;105467.94;5056058;28;20044;-75
2024/01/24 05:39:31;;;;;;;88.88;50.70;;;;;;;-1.93;100.00;105435.28;5059542;28;20119;-71
2024/01/24 05:41:56;;;;;;;77.43;46.78;;;;;;;-1.99;100.00;105446.19;5058947;28;20029;-71
2024/01/24 05:44:22;;;;;;;63.80;40.50;;;;;;;-3.22;100.00;105140.06;5058770;28;20111;-72
2024/01/24 05:46:47;;;;;;;54.40;35.35;;;;;;;-2.78;100.00;105257.00;5059299;28;20325;-71
2024/01/24 05:49:13;;;;;;;60.28;37.05;;;;;;;-1.73;100.00;105457.44;5065355;28;20036;-72
2024/01/24 05:51:38;;;;;;;59.03;37.30;;;;;;;-1.84;100.00;104983.94;5064742;28;20029;-73
2024/01/24 05:54:04;;;;;;;50.17;32.42;;;;;;;-2.84;100.00;104901.16;5059483;28;20049;-71
2024/01/24 05:56:30;;;;;;;136.30;72.85;;;;;;;-1.78;100.00;105035.34;5058594;28;20036;-71
2024/01/24 05:58:56;;;;;;;70.35;42.50;;;;;;;-1.98;100.00;105057.31;5059434;28;20036;-71
2024/01/24 06:01:21;;;;;;;74.55;46.10;;;;;;;-1.65;100.00;105243.69;5057944;28;20471;-71
2024/01/24 06:03:47;;;;;;;63.65;39.60;;;;;;;-2.01;100.00;105084.44;5059971;28;20037;-71
2024/01/24 06:06:12;;;;;;;63.97;42.97;;;;;;;-2.25;100.00;105100.91;5059454;28;20024;-71
2024/01/24 06:08:38;;;;;;;76.70;47.53;;;;;;;-0.81;100.00;105386.72;5054902;28;20029;-71
2024/01/24 06:11:04;;;;;;;74.97;44.33;;;;;;;-0.25;100.00;105539.47;5058840;28;20078;-71
2024/01/24 06:13:30;;;;;;;71.68;48.22;;;;;;;-0.48;100.00;105462.75;5060020;28;20052;-72
2024/01/24 06:15:56;;;;;;;70.53;46.28;;;;;;;-0.02;100.00;105580.28;5054628;28;20040;-71
2024/01/24 06:18:22;;;;;;;69.15;47.88;;;;;;;1.75;100.00;105978.41;5060029;28;20502;-72
2024/01/24 06:20:47;;;;;;;81.47;50.88;;;;;;;2.07;100.00;105867.88;5052851;28;20103;-72
2024/01/24 06:23:13;;;;;;;68.78;45.85;;;;;;;0.78;100.00;105610.41;5057871;28;20036;-72
2024/01/24 06:25:38;;;;;;;68.70;46.65;;;;;;;2.34;100.00;105858.09;5056592;28;20025;-71
2024/01/24 06:28:04;;;;;;;62.90;42.67;;;;;;;2.28;100.00;105842.41;5064753;28;20040;-73
2024/01/24 06:30:30;;;;;;;80.38;53.40;;;;;;;2.94;100.00;105899.41;5081919;28;20074;-72
2024/01/24 06:32:55;;;;;;;71.97;46.85;;;;;;;1.53;100.00;105362.31;5056907;28;20562;-73
2024/01/24 06:35:21;;;;;;;110.68;71.70;;;;;;;3.10;100.00;105658.72;5060623;28;20028;-72
2024/01/24 06:37:48;;;;;;;152.63;107.68;;;;;;;4.19;100.00;105856.22;5060164;28;20471;-72
2024/01/24 06:40:14;;;;;;;141.35;97.72;;;;;;;4.10;100.00;105773.88;5059612;28;20037;-72
2024/01/24 06:42:40;;;;;;;125.53;85.35;;;;;;;4.21;100.00;105715.25;5057011;28;20470;-72
2024/01/24 06:45:07;;;;;;;118.03;83.28;;;;;;;4.22;100.00;105453.34;5060544;28;20037;-76
2024/01/24 06:47:34;;;;;;;148.23;106.03;;;;;;;3.35;100.00;105149.56;5053393;28;20052;-72
2024/01/24 06:49:59;;;;;;;213.77;138.55;;;;;;;4.04;100.00;105310.72;5058526;28;20122;-73
2024/01/24 06:52:25;;;;;;;146.98;100.18;;;;;;;3.89;100.00;105175.09;5056349;28;20124;-72
2024/01/24 06:54:51;;;;;;;114.03;78.10;;;;;;;3.58;100.00;104972.84;5059967;28;20544;-73
2024/01/24 06:57:18;;;;;;;107.43;71.75;;;;;;;3.90;100.00;104957.81;5058921;28;20049;-72
2024/01/24 06:59:44;;;;;;;98.40;64.65;;;;;;;3.62;100.00;104828.00;5059352;28;20035;-71
2024/01/24 07:02:09;;;;;;;94.32;59.83;;;;;;;3.17;100.00;104614.03;5057221;28;20029;-70
2024/01/24 07:04:35;;;;;;;93.80;58.85;;;;;;;3.66;100.00;104589.28;5062155;28;20036;-73
2024/01/24 07:07:00;;;;;;;86.97;54.63;;;;;;;4.87;100.00;104747.78;5061056;28;20534;-71
2024/01/24 07:09:27;;;;;;;70.25;44.88;;;;;;;2.78;100.00;104315.28;5058427;28;20033;-70
2024/01/24 07:11:52;;;;;;;66.65;43.28;;;;;;;3.25;100.00;104332.16;5058426;28;20517;-73
2024/01/24 07:14:18;;;;;;;62.30;42.55;;;;;;;2.69;100.00;104226.69;5056718;28;20017;-70
2024/01/24 07:16:48;;;;;;;59.15;39.38;;;;;;;1.73;100.00;103982.84;5058541;28;20051;-72
2024/01/24 07:19:14;;;;;;;59.47;36.78;;;;;;;2.70;100.00;104031.59;5048914;28;20036;-71
2024/01/24 07:21:40;;;;;;;60.40;41.67;;;;;;;1.27;100.00;103847.41;5055529;28;20029;-72
2024/01/24 07:24:05;;;;;;;64.90;44.75;;;;;;;2.92;100.00;104163.84;5054498;28;20079;-71
2024/01/24 07:26:31;;;;;;;67.97;45.95;;;;;;;2.18;100.00;103931.69;5057401;28;20067;-71
2024/01/24 07:28:56;;;;;;;55.03;37.75;;;;;;;1.46;100.00;103774.41;5061226;28;20102;-71
2024/01/24 07:31:22;;;;;;;47.40;32.03;;;;;;;0.34;100.00;103585.16;5053148;28;20031;-72
2024/01/24 07:33:48;;;;;;;50.42;35.05;;;;;;;2.14;100.00;103913.00;5055527;28;20029;-72
2024/01/24 07:36:13;;;;;;;51.88;36.30;;;;;;;1.02;100.00;103673.56;5057924;28;20029;-73
2024/01/24 07:38:39;;;;;;;64.10;46.78;;;;;;;1.16;100.00;103685.41;5061376;28;20028;-73
2024/01/24 07:41:05;;;;;;;60.92;43.05;;;;;;;1.08;100.00;103663.97;5063266;28;20055;-73
2024/01/24 07:43:32;;;;;;;54.80;39.72;;;;;;;1.73;100.00;103762.16;5060108;28;20025;-73
2024/01/24 07:45:58;;;;;;;50.22;35.10;;;;;;;1.67;100.00;103773.38;5063052;28;20039;-73
2024/01/24 07:48:24;;;;;;;45.53;32.97;;;;;;;0.24;100.00;103516.09;5060027;28;20033;-74
2024/01/24 07:50:49;;;;;;;49.28;32.97;;;;;;;1.35;100.00;103690.94;5056024;28;20499;-73
2024/01/24 07:53:15;;;;;;;48.45;32.50;;;;;;;1.23;100.00;103665.03;5064445;28;20115;-75
2024/01/24 07:55:41;;;;;;;48.05;32.40;;;;;;;2.25;100.00;103758.13;5062489;28;20041;-72
2024/01/24 07:58:06;;;;;;;52.72;36.65;;;;;;;1.75;100.00;103749.69;5064287;28;20090;-71
2024/01/24 08:00:32;;;;;;;59.28;40.55;;;;;;;2.09;100.00;103788.00;5064625;28;20037;-72
2024/01/24 08:02:58;;;;;;;50.53;36.83;;;;;;;1.85;100.00;103797.22;5059869;28;20119;-74
2024/01/24 08:05:24;;;;;;;64.35;46.28;;;;;;;1.76;100.00;103704.66;5063586;28;20037;-72
2024/01/24 08:07:50;;;;;;;67.35;50.28;;;;;;;2.03;100.00;103772.53;5062891;28;20052;-72
2024/01/24 08:10:16;;;;;;;65.65;47.70;;;;;;;1.77;100.00;103734.00;5065180;28;20090;-72
2024/01/24 08:12:42;;;;;;;65.28;45.50;;;;;;;0.92;100.00;103550.06;5057346;28;20028;-74
2024/01/24 08:15:08;;;;;;;84.07;52.33;;;;;;;2.26;100.00;103709.66;5067337;28;20056;-73
2024/01/24 08:17:35;;;;;;;103.07;63.72;;;;;;;1.95;100.00;103673.28;5059728;28;20083;-74
2024/01/24 08:20:03;;;;;;;84.35;53.47;;;;;;;1.71;100.00;103645.81;5061483;28;20036;-72
2024/01/24 08:22:29;;;;;;;72.13;47.78;;;;;;;2.23;100.00;103753.03;5067348;28;20041;-72
2024/01/24 08:24:55;;;;;;;72.40;49.90;;;;;;;1.61;100.00;103645.94;5062307;28;20090;-72
2024/01/24 08:27:20;;;;;;;71.32;46.55;;;;;;;2.34;100.00;103771.28;5053019;28;20563;-72
2024/01/24 08:29:46;;;;;;;81.78;44.95;;;;;;;1.77;100.00;103711.44;5058634;28;20044;-72
2024/01/24 08:32:11;;;;;;;72.25;43.42;;;;;;;1.81;100.00;103674.88;5059955;28;20495;-72
2024/01/24 08:34:37;;;;;;;79.57;47.22;;;;;;;2.42;100.00;103775.19;5062313;28;20487;-72
2024/01/24 08:37:03;;;;;;;76.75;47.20;;;;;;;1.67;100.00;103668.94;5062360;28;20047;-72
2024/01/24 08:39:29;;;;;;;68.07;44.08;;;;;;;2.25;100.00;103766.56;5058158;28;20029;-72
2024/01/24 08:41:54;;;;;;;73.32;45.85;;;;;;;3.00;100.00;103948.25;5060405;28;20414;-72
2024/01/24 08:44:20;;;;;;;70.88;45.30;;;;;;;2.61;100.00;103831.75;5060565;28;20025;-72
2024/01/24 08:46:45;;;;;;;69.15;40.97;;;;;;;2.86;100.00;103932.25;5062339;28;20031;-73
2024/01/24 08:49:12;;;;;;;70.97;44.63;;;;;;;2.57;100.00;103864.13;5057783;28;20029;-73
2024/01/24 08:51:38;;;;;;;69.50;46.83;;;;;;;2.71;100.00;103870.94;5059451;28;20032;-70
2024/01/24 08:54:04;;;;;;;64.95;42.08;;;;;;;2.91;100.00;103917.50;5058602;28;20103;-70
2024/01/24 08:56:30;;;;;;;55.78;38.15;;;;;;;3.16;100.00;103956.03;5072031;28;20419;-72
2024/01/24 08:58:55;;;;;;;63.92;39.00;;;;;;;3.68;100.00;104071.03;5067242;28;20029;-72
2024/01/24 09:01:21;;;;;;;50.53;33.80;;;;;;;4.17;100.00;104035.66;5062201;28;20119;-71
2024/01/24 09:03:48;;;;;;;50.30;34.65;;;;;;;4.36;100.00;104167.03;5059894;28;20032;-71
2024/01/24 09:06:15;;;;;;;58.97;41.67;;;;;;;4.47;100.00;104150.09;5062559;28;20039;-73
2024/01/24 09:08:41;;;;;;;63.53;45.83;;;;;;;4.98;100.00;104204.69;5060395;28;20040;-72
2024/01/24 09:11:07;;;;;;;40.92;27.17;;;;;;;5.03;100.00;104223.50;5061291;28;20479;-72
2024/01/24 09:13:33;;;;;;;38.53;24.63;;;;;;;5.28;100.00;104213.31;5059601;28;20403;-71
2024/01/24 09:15:58;;;;;;;43.17;27.02;;;;;;;6.08;100.00;104364.78;5065161;28;20036;-73
2024/01/24 09:18:23;;;;;;;26.75;17.13;;;;;;;6.13;100.00;104320.44;5058292;28;20036;-70
2024/01/24 09:20:49;;;;;;;16.83;11.32;;;;;;;6.61;100.00;104341.06;5059148;28;20040;-72
2024/01/24 09:23:14;;;;;;;16.17;10.52;;;;;;;6.10;100.00;104177.09;5061933;28;20119;-74
2024/01/24 09:25:40;;;;;;;16.65;10.48;;;;;;;6.80;100.00;104260.38;5059783;28;20029;-73
2024/01/24 09:28:08;;;;;;;16.40;10.30;;;;;;;6.27;100.00;104079.53;5064660;28;20150;-72
2024/01/24 09:30:34;;;;;;;16.33;10.05;;;;;;;6.72;100.00;104112.41;5057357;28;20032;-73
2024/01/24 09:33:01;;;;;;;13.68;9.35;;;;;;;7.00;100.00;104165.34;5063537;28;20469;-71
2024/01/24 09:35:26;;;;;;;15.80;10.68;;;;;;;7.13;100.00;104122.19;5056502;28;20033;-72
2024/01/24 09:37:51;;;;;;;15.50;9.82;;;;;;;7.02;100.00;104001.84;5059116;28;20032;-72
2024/01/24 09:40:17;;;;;;;16.92;11.38;;;;;;;6.59;100.00;103901.81;5060772;28;20044;-72
2024/01/24 09:42:43;;;;;;;15.95;10.90;;;;;;;7.47;100.00;104021.03;5058911;28;20032;-70
2024/01/24 09:45:10;;;;;;;15.50;9.40;;;;;;;7.48;100.00;104021.13;5059881;28;20041;-72
2024/01/24 09:47:37;;;;;;;24.35;13.48;;;;;;;7.59;100.00;103953.25;5056723;28;20040;-71
2024/01/24 09:50:04;;;;;;;17.75;10.90;;;;;;;7.66;100.00;104061.69;5058899;28;20037;-72
2024/01/24 09:52:32;;;;;;;15.98;9.82;;;;;;;7.24;100.00;103850.31;5058186;28;20094;-72
2024/01/24 09:55:00;;;;;;;14.75;9.52;;;;;;;7.64;100.00;103934.09;5063840;28;20056;-72
2024/01/24 09:57:27;;;;;;;10.60;7.40;;;;;;;7.56;100.00;103874.63;5056040;28;20029;-71
2024/01/24 09:59:54;;;;;;;13.07;9.30;;;;;;;7.90;100.00;103964.09;5057512;28;20033;-72
2024/01/24 10:02:20;;;;;;;16.20;9.13;;;;;;;7.69;100.00;103864.25;5057643;28;20490;-71
2024/01/24 10:04:45;;;;;;;12.73;8.88;;;;;;;7.39;100.00;103759.06;5059183;28;20078;-71
2024/01/24 10:07:12;;;;;;;15.77;9.05;;;;;;;7.81;100.00;103787.19;5065956;28;20411;-71
2024/01/24 10:09:38;;;;;;;12.73;7.90;;;;;;;8.05;100.00;103800.06;5059013;28;20327;-71
2024/01/24 10:12:04;;;;;;;14.88;8.27;;;;;;;8.24;100.00;103830.47;5055556;28;20500;-71
2024/01/24 10:14:30;;;;;;;12.57;8.07;;;;;;;7.69;100.00;103644.78;5057706;28;20024;-72
2024/01/24 10:16:57;;;;;;;11.20;7.63;;;;;;;8.54;100.00;103661.03;5057059;28;20471;-72
2024/01/24 10:19:25;;;;;;;15.15;8.85;;;;;;;8.51;100.00;103707.44;5062644;28;20487;-73
2024/01/24 10:21:52;;;;;;;20.02;7.88;;;;;;;8.41;100.00;103515.16;5055940;28;20560;-72
2024/01/24 10:24:18;;;;;;;10.45;6.80;;;;;;;8.41;100.00;103553.22;5060731;28;20039;-71
2024/01/24 10:26:47;;;;;;;8.90;6.53;;;;;;;7.92;100.00;103429.56;5061712;28;20029;-71
2024/01/24 10:29:13;;;;;;;14.60;8.30;;;;;;;8.37;100.00;103515.84;5059779;28;20515;-71
2024/01/24 10:31:38;;;;;;;15.38;9.85;;;;;;;7.84;100.00;103398.88;5057818;28;20028;-71
2024/01/24 10:34:04;;;;;;;11.10;7.72;;;;;;;8.53;100.00;103457.31;5058712;28;20032;-72
2024/01/24 10:36:32;;;;;;;11.70;8.38;;;;;;;7.92;100.00;103321.50;5056887;28;20029;-73
2024/01/24 10:39:00;;;;;;;14.77;8.40;;;;;;;7.90;100.00;103303.69;5054911;28;20111;-73
2024/01/24 10:41:39;;;;;;;13.40;9.40;;;;;;;8.47;100.00;103406.38;5061812;28;20397;-72
2024/01/24 10:44:09;;;;;;;10.63;7.28;;;;;;;8.08;100.00;103288.28;5055052;28;20021;-75
2024/01/24 10:46:40;;;;;;;12.50;8.95;;;;;;;8.43;100.00;103322.53;5057654;28;20108;-72
2024/01/24 10:49:06;;;;;;;12.70;8.52;;;;;;;7.79;100.00;103183.41;5060341;28;20040;-72
2024/01/24 10:51:33;;;;;;;12.73;9.45;;;;;;;8.09;100.00;103230.88;5057245;28;20060;-72
2024/01/24 10:53:59;;;;;;;17.35;10.68;;;;;;;8.62;100.00;103300.38;5058930;28;20301;-73
2024/01/24 10:56:27;;;;;;;19.85;10.18;;;;;;;9.09;100.00;103298.53;5058829;28;20043;-72
2024/01/24 10:58:54;;;;;;;13.07;8.52;;;;;;;9.26;100.00;103307.53;5057972;28;20060;-73